createdAt,value
2022-10-31T00:03:34.036Z,4.30
2022-10-31T00:08:35.473Z,4.10
2022-10-31T00:13:36.848Z,4.53
2022-10-31T00:18:38.196Z,4.43
2022-10-31T00:23:39.545Z,5.43
2022-10-31T00:28:40.905Z,5.63
2022-10-31T00:33:42.640Z,6.10
2022-10-31T00:38:44.688Z,5.97
2022-10-31T00:43:46.299Z,4.82
2022-10-31T00:48:48.327Z,4.95
2022-10-31T00:53:49.715Z,5.28
2022-10-31T00:58:51.097Z,4.55
2022-10-31T01:03:52.438Z,4.85
2022-10-31T01:08:53.789Z,4.78
2022-10-31T01:13:55.349Z,4.63
2022-10-31T01:18:56.857Z,5.00
2022-10-31T01:23:58.246Z,4.30
2022-10-31T01:29:04.496Z,5.10
2022-10-31T01:34:06.441Z,4.80
2022-10-31T01:39:12.674Z,4.72
2022-10-31T01:44:17.162Z,4.90
2022-10-31T01:49:28.053Z,4.88
2022-10-31T01:54:32.494Z,4.75
2022-10-31T01:59:35.684Z,5.07
2022-10-31T02:04:37.893Z,5.15
2022-10-31T02:09:40.770Z,4.75
2022-10-31T02:14:42.509Z,4.85
2022-10-31T02:19:44.024Z,5.30
2022-10-31T02:24:45.469Z,5.05
2022-10-31T02:29:55.553Z,5.45
2022-10-31T02:35:15.775Z,5.78
2022-10-31T02:40:26.614Z,6.53
2022-10-31T02:50:34.382Z,5.55
2022-10-31T02:55:35.739Z,5.85
2022-10-31T03:00:41.772Z,6.38
2022-10-31T03:05:46.241Z,5.82
2022-10-31T03:10:47.688Z,5.72
2022-10-31T03:15:54.406Z,5.53
2022-10-31T03:21:15.544Z,5.35
2022-10-31T03:26:17.399Z,5.47
2022-10-31T03:31:20.563Z,5.97
2022-10-31T03:36:22.174Z,6.22
2022-10-31T03:41:25.797Z,6.45
2022-10-31T03:46:27.635Z,6.28
2022-10-31T03:51:40.261Z,6.40
2022-10-31T03:56:44.003Z,6.78
2022-10-31T04:01:47.981Z,7.70
2022-10-31T04:06:50.112Z,6.65
2022-10-31T04:11:53.887Z,7.10
2022-10-31T04:16:55.211Z,7.10
2022-10-31T04:21:56.574Z,7.45
2022-10-31T04:26:57.993Z,6.88
2022-10-31T04:31:59.595Z,7.70
2022-10-31T04:37:01.126Z,8.20
2022-10-31T04:42:02.478Z,8.52
2022-10-31T04:47:03.923Z,8.02
2022-10-31T04:52:05.352Z,9.13
2022-10-31T04:57:07.112Z,8.55
2022-10-31T05:02:08.782Z,8.52
2022-10-31T05:07:10.301Z,9.40
2022-10-31T05:12:11.649Z,10.07
2022-10-31T05:17:13.000Z,8.98
2022-10-31T05:22:14.345Z,9.82
2022-10-31T05:27:15.707Z,9.40
2022-10-31T05:32:17.022Z,8.95
2022-10-31T05:37:18.370Z,9.77
2022-10-31T05:42:19.814Z,9.27
2022-10-31T05:47:21.174Z,9.95
2022-10-31T05:52:22.563Z,10.13
2022-10-31T05:57:25.318Z,9.63
2022-10-31T06:02:27.744Z,10.18
2022-10-31T06:07:33.057Z,10.98
2022-10-31T06:12:38.797Z,10.93
2022-10-31T06:17:40.315Z,12.35
2022-10-31T06:22:41.684Z,13.00
2022-10-31T06:27:44.399Z,13.77
2022-10-31T06:32:45.811Z,14.60
2022-10-31T06:37:56.222Z,15.07
2022-10-31T06:42:58.638Z,16.08
2022-10-31T06:53:21.413Z,16.42
2022-10-31T06:58:24.635Z,16.50
2022-10-31T07:03:26.073Z,15.90
2022-10-31T07:08:27.493Z,17.63
2022-10-31T07:13:29.061Z,16.90
2022-10-31T07:18:30.666Z,16.30
2022-10-31T07:23:32.279Z,15.93
2022-10-31T07:28:33.644Z,15.80
2022-10-31T07:33:35.181Z,16.48
2022-10-31T07:38:36.601Z,15.95
2022-10-31T07:43:37.992Z,16.52
2022-10-31T07:48:39.429Z,16.23
2022-10-31T07:53:40.895Z,16.17
2022-10-31T07:58:42.250Z,15.52
2022-10-31T08:03:43.579Z,16.05
2022-10-31T08:08:44.911Z,16.15
2022-10-31T08:13:47.470Z,16.60
2022-10-31T08:18:48.886Z,17.10
2022-10-31T08:23:50.296Z,16.25
2022-10-31T08:28:51.705Z,16.05
2022-10-31T08:33:53.360Z,17.40
2022-10-31T08:39:00.625Z,16.65
2022-10-31T08:44:03.212Z,16.80
2022-10-31T08:49:04.641Z,17.15
2022-10-31T08:54:06.070Z,16.92
2022-10-31T08:59:07.429Z,16.50
2022-10-31T09:04:08.771Z,16.50
2022-10-31T09:09:10.302Z,15.57
2022-10-31T09:14:11.829Z,16.20
2022-10-31T09:19:13.230Z,15.13
2022-10-31T09:24:14.619Z,15.25
2022-10-31T09:29:16.201Z,16.05
2022-10-31T09:34:17.801Z,15.48
2022-10-31T09:39:21.272Z,14.48
2022-10-31T09:44:43.120Z,15.50
2022-10-31T09:49:44.756Z,14.70
2022-10-31T09:54:48.618Z,15.50
2022-10-31T09:59:50.458Z,14.65
2022-10-31T10:04:59.491Z,15.00
2022-10-31T10:10:02.037Z,13.83
2022-10-31T10:15:18.256Z,14.50
2022-10-31T10:20:25.856Z,15.48
2022-10-31T10:25:33.486Z,15.70
2022-10-31T10:30:46.274Z,14.80
2022-10-31T10:35:54.758Z,14.52
2022-10-31T10:40:56.749Z,13.43
2022-10-31T10:46:35.687Z,13.07
2022-10-31T10:52:18.963Z,13.95
2022-10-31T10:57:04.409Z,12.45
2022-10-31T11:02:16.678Z,11.95
2022-10-31T11:07:19.988Z,11.68
2022-10-31T11:12:31.167Z,11.75
2022-10-31T11:17:35.249Z,10.38
2022-10-31T11:22:36.871Z,9.90
2022-10-31T11:27:38.363Z,10.20
2022-10-31T11:32:45.291Z,10.32
2022-10-31T11:37:47.924Z,8.98
2022-10-31T11:42:50.585Z,9.73
2022-10-31T11:47:58.212Z,9.68
2022-10-31T11:53:01.160Z,10.70
2022-10-31T11:58:03.411Z,11.27
2022-10-31T12:03:11.227Z,10.50
2022-10-31T12:08:13.334Z,10.50
2022-10-31T12:13:33.283Z,9.05
2022-10-31T12:23:49.151Z,8.00
2022-10-31T12:28:55.465Z,8.32
2022-10-31T12:34:16.390Z,8.95
2022-10-31T12:39:36.368Z,8.32
2022-10-31T12:49:44.853Z,8.30
2022-10-31T12:54:52.026Z,8.00
2022-10-31T13:00:28.140Z,7.75
2022-10-31T13:05:37.832Z,9.10
2022-10-31T13:10:43.239Z,8.60
2022-10-31T13:15:49.415Z,8.25
2022-10-31T13:20:54.787Z,8.50
2022-10-31T13:25:58.270Z,9.40
2022-10-31T13:30:59.662Z,10.70
2022-10-31T13:36:21.285Z,11.85
2022-10-31T13:41:22.719Z,11.52
2022-10-31T13:46:25.593Z,10.50
2022-10-31T13:51:29.356Z,10.43
2022-10-31T13:56:32.922Z,9.13
2022-10-31T14:01:34.687Z,10.55
2022-10-31T14:06:42.428Z,11.05
2022-10-31T14:11:46.938Z,10.70
2022-10-31T14:16:55.766Z,12.40
2022-10-31T14:21:57.291Z,13.10
2022-10-31T14:26:59.961Z,12.38
2022-10-31T14:32:14.324Z,12.88
2022-10-31T14:37:38.751Z,12.20
2022-10-31T14:42:59.148Z,12.73
2022-10-31T14:48:19.487Z,13.10
2022-10-31T14:53:41.128Z,12.02
2022-10-31T14:58:44.134Z,11.57
2022-10-31T15:04:10.190Z,12.32
2022-10-31T15:09:21.531Z,12.25
2022-10-31T15:14:27.682Z,11.35
2022-10-31T15:19:30.704Z,11.60
2022-10-31T15:24:35.117Z,11.00
2022-10-31T15:29:36.518Z,10.90
2022-10-31T15:34:42.154Z,10.80
2022-10-31T15:39:47.011Z,10.35
2022-10-31T15:44:59.717Z,11.38
2022-10-31T15:50:02.510Z,13.05
2022-10-31T15:55:19.716Z,11.00
2022-10-31T16:00:31.974Z,11.25
2022-10-31T16:05:37.505Z,10.85
2022-10-31T16:10:38.849Z,10.38
2022-10-31T16:15:48.694Z,10.98
2022-10-31T16:20:51.093Z,10.63
2022-10-31T16:25:52.840Z,9.75
2022-10-31T16:30:57.782Z,9.00
2022-10-31T16:36:09.688Z,11.25
2022-10-31T16:41:20.963Z,10.68
2022-10-31T16:46:26.557Z,9.65
2022-10-31T16:51:27.900Z,10.43
2022-10-31T16:56:30.255Z,9.77
2022-10-31T17:01:32.350Z,10.02
2022-10-31T17:06:33.827Z,11.18
2022-10-31T17:11:35.367Z,10.60
2022-10-31T17:16:37.468Z,12.30
2022-10-31T17:21:39.389Z,11.38
2022-10-31T17:26:41.244Z,11.43
2022-10-31T17:31:42.859Z,11.13
2022-10-31T17:36:49.718Z,12.57
2022-10-31T17:41:51.897Z,11.65
2022-10-31T17:46:53.240Z,11.82
2022-10-31T17:51:54.603Z,12.93
2022-10-31T17:56:56.035Z,13.90
2022-10-31T18:01:58.288Z,13.63
2022-10-31T18:06:59.769Z,13.88
2022-10-31T18:12:01.157Z,14.77
2022-10-31T18:17:02.577Z,14.13
2022-10-31T18:22:03.943Z,14.57
2022-10-31T18:27:05.624Z,15.00
2022-10-31T18:32:09.494Z,14.82
2022-10-31T18:37:11.270Z,14.68
2022-10-31T18:42:12.635Z,16.15
2022-10-31T18:47:14.090Z,15.30
2022-10-31T18:52:15.433Z,15.10
2022-10-31T18:57:16.925Z,16.10
2022-10-31T19:02:18.447Z,15.55
2022-10-31T19:07:19.991Z,15.80
2022-10-31T19:12:21.417Z,15.23
2022-10-31T19:17:24.181Z,16.27
2022-10-31T19:22:25.547Z,16.38
2022-10-31T19:27:28.175Z,17.17
2022-10-31T19:32:29.619Z,15.38
2022-10-31T19:37:31.001Z,16.30
2022-10-31T19:42:33.550Z,16.65
2022-10-31T19:47:34.988Z,17.75
2022-10-31T19:52:36.343Z,16.42
2022-10-31T20:03:00.139Z,17.70
2022-10-31T20:08:01.764Z,18.45
2022-10-31T20:13:03.453Z,17.80
2022-10-31T20:18:05.058Z,18.92
2022-10-31T20:23:06.465Z,19.30
2022-10-31T20:28:07.813Z,18.38
2022-10-31T20:33:09.367Z,17.27
2022-10-31T20:38:10.786Z,18.90
2022-10-31T20:43:12.322Z,19.15
2022-10-31T20:48:13.650Z,17.90
2022-10-31T20:53:14.983Z,17.52
2022-10-31T20:58:16.411Z,16.85
2022-10-31T21:03:17.730Z,16.13
2022-10-31T21:08:19.096Z,14.80
2022-10-31T21:13:20.718Z,13.55
2022-10-31T21:18:22.147Z,13.73
2022-10-31T21:23:23.604Z,12.48
2022-10-31T21:28:25.088Z,10.98
2022-10-31T21:33:26.517Z,10.65
2022-10-31T21:38:27.867Z,9.85
2022-10-31T21:43:29.807Z,9.65
2022-10-31T21:48:31.215Z,11.13
2022-10-31T21:53:51.169Z,8.50
2022-10-31T22:03:53.984Z,7.85
2022-10-31T22:08:55.442Z,8.48
2022-10-31T22:13:58.713Z,7.72
2022-10-31T22:19:00.370Z,7.45
2022-10-31T22:24:04.953Z,8.68
2022-10-31T22:29:11.887Z,7.32
2022-10-31T22:34:13.842Z,7.70
2022-10-31T22:39:15.252Z,7.43
2022-10-31T22:44:16.631Z,6.32
2022-10-31T22:49:18.038Z,6.80
2022-10-31T22:54:19.529Z,6.85
2022-10-31T22:59:20.901Z,6.30
2022-10-31T23:04:22.333Z,6.22
2022-10-31T23:09:23.646Z,7.07
2022-10-31T23:14:25.178Z,7.00
2022-10-31T23:19:27.803Z,6.43
2022-10-31T23:24:39.282Z,6.03
2022-10-31T23:29:44.478Z,6.68
2022-10-31T23:34:46.766Z,6.35
2022-10-31T23:39:48.506Z,5.90
2022-10-31T23:44:49.875Z,6.05
2022-10-31T23:49:51.225Z,6.43
2022-10-31T23:54:52.647Z,6.13
2022-10-31T23:59:53.966Z,5.97
